sensor_id;sensor_type;location;lat;lon;timestamp;temperature;humidity
7936;DHT22;4013;49.744;8.118;2022-07-09T00:02:22;17.90;99.90
7936;DHT22;4013;49.744;8.118;2022-07-09T00:04:49;17.90;99.90
7936;DHT22;4013;49.744;8.118;2022-07-09T00:07:16;17.90;99.90
7936;DHT22;4013;49.744;8.118;2022-07-09T00:09:43;17.80;99.90
7936;DHT22;4013;49.744;8.118;2022-07-09T00:12:10;17.70;99.90
7936;DHT22;4013;49.744;8.118;2022-07-09T00:14:37;17.70;99.90
7936;DHT22;4013;49.744;8.118;2022-07-09T00:17:04;17.60;99.90
7936;DHT22;4013;49.744;8.118;2022-07-09T00:19:32;17.60;99.90
7936;DHT22;4013;49.744;8.118;2022-07-09T00:21:59;17.50;99.90
7936;DHT22;4013;49.744;8.118;2022-07-09T00:24:26;17.40;99.90
7936;DHT22;4013;49.744;8.118;2022-07-09T00:26:53;17.30;99.90
7936;DHT22;4013;49.744;8.118;2022-07-09T00:29:20;17.20;99.90
7936;DHT22;4013;49.744;8.118;2022-07-09T00:31:47;17.20;99.90
7936;DHT22;4013;49.744;8.118;2022-07-09T00:34:14;17.10;99.90
7936;DHT22;4013;49.744;8.118;2022-07-09T00:36:42;17.10;99.90
7936;DHT22;4013;49.744;8.118;2022-07-09T00:39:09;17.20;99.90
7936;DHT22;4013;49.744;8.118;2022-07-09T00:41:36;17.30;99.90
7936;DHT22;4013;49.744;8.118;2022-07-09T00:44:03;17.30;99.90
7936;DHT22;4013;49.744;8.118;2022-07-09T00:46:30;17.40;99.90
7936;DHT22;4013;49.744;8.118;2022-07-09T00:48:57;17.30;99.90
7936;DHT22;4013;49.744;8.118;2022-07-09T00:51:29;17.30;99.90
7936;DHT22;4013;49.744;8.118;2022-07-09T00:53:59;17.10;99.90
7936;DHT22;4013;49.744;8.118;2022-07-09T00:56:28;17.00;99.90
7936;DHT22;4013;49.744;8.118;2022-07-09T00:58:55;16.90;99.90
7936;DHT22;4013;49.744;8.118;2022-07-09T01:01:22;16.80;99.90
7936;DHT22;4013;49.744;8.118;2022-07-09T01:03:49;16.70;99.90
7936;DHT22;4013;49.744;8.118;2022-07-09T01:06:16;16.60;99.90
7936;DHT22;4013;49.744;8.118;2022-07-09T01:08:43;16.60;99.90
7936;DHT22;4013;49.744;8.118;2022-07-09T01:11:11;16.50;99.90
7936;DHT22;4013;49.744;8.118;2022-07-09T01:13:38;16.60;99.90
7936;DHT22;4013;49.744;8.118;2022-07-09T01:16:11;16.70;99.90
7936;DHT22;4013;49.744;8.118;2022-07-09T01:18:39;16.70;99.90
7936;DHT22;4013;49.744;8.118;2022-07-09T01:21:07;16.70;99.90
7936;DHT22;4013;49.744;8.118;2022-07-09T01:23:34;16.70;99.90
7936;DHT22;4013;49.744;8.118;2022-07-09T01:26:01;16.60;99.90
7936;DHT22;4013;49.744;8.118;2022-07-09T01:28:28;16.50;99.90
7936;DHT22;4013;49.744;8.118;2022-07-09T01:30:55;16.50;99.90
7936;DHT22;4013;49.744;8.118;2022-07-09T01:33:22;16.50;99.90
7936;DHT22;4013;49.744;8.118;2022-07-09T01:35:50;16.40;99.90
7936;DHT22;4013;49.744;8.118;2022-07-09T01:38:18;16.30;99.90
7936;DHT22;4013;49.744;8.118;2022-07-09T01:40:45;16.30;99.90
7936;DHT22;4013;49.744;8.118;2022-07-09T01:43:12;16.20;99.90
7936;DHT22;4013;49.744;8.118;2022-07-09T01:45:39;16.20;99.90
7936;DHT22;4013;49.744;8.118;2022-07-09T01:48:06;16.10;99.90
7936;DHT22;4013;49.744;8.118;2022-07-09T01:50:33;16.10;99.90
7936;DHT22;4013;49.744;8.118;2022-07-09T01:53:00;16.00;99.90
7936;DHT22;4013;49.744;8.118;2022-07-09T01:55:28;16.00;99.90
7936;DHT22;4013;49.744;8.118;2022-07-09T01:57:55;16.00;99.90
7936;DHT22;4013;49.744;8.118;2022-07-09T02:00:22;15.90;99.90
7936;DHT22;4013;49.744;8.118;2022-07-09T02:02:49;15.90;99.90
7936;DHT22;4013;49.744;8.118;2022-07-09T02:05:16;15.90;99.90
7936;DHT22;4013;49.744;8.118;2022-07-09T02:07:43;15.90;99.90
7936;DHT22;4013;49.744;8.118;2022-07-09T02:10:10;15.90;99.90
7936;DHT22;4013;49.744;8.118;2022-07-09T02:12:39;16.00;99.90
7936;DHT22;4013;49.744;8.118;2022-07-09T02:15:07;16.00;99.90
7936;DHT22;4013;49.744;8.118;2022-07-09T02:17:36;15.90;99.90
7936;DHT22;4013;49.744;8.118;2022-07-09T02:20:04;15.80;99.90
7936;DHT22;4013;49.744;8.118;2022-07-09T02:22:31;15.70;99.90
7936;DHT22;4013;49.744;8.118;2022-07-09T02:24:58;15.80;99.90
7936;DHT22;4013;49.744;8.118;2022-07-09T02:27:25;15.70;99.90
7936;DHT22;4013;49.744;8.118;2022-07-09T02:29:53;15.70;99.90
7936;DHT22;4013;49.744;8.118;2022-07-09T02:32:20;15.70;99.90
7936;DHT22;4013;49.744;8.118;2022-07-09T02:34:47;15.60;99.90
7936;DHT22;4013;49.744;8.118;2022-07-09T02:37:14;15.60;99.90
7936;DHT22;4013;49.744;8.118;2022-07-09T02:39:41;15.50;99.90
7936;DHT22;4013;49.744;8.118;2022-07-09T02:42:08;15.60;99.90
7936;DHT22;4013;49.744;8.118;2022-07-09T02:44:35;15.60;99.90
7936;DHT22;4013;49.744;8.118;2022-07-09T02:47:03;15.60;99.90
7936;DHT22;4013;49.744;8.118;2022-07-09T02:49:30;15.70;99.90
7936;DHT22;4013;49.744;8.118;2022-07-09T02:51:57;15.70;99.90
7936;DHT22;4013;49.744;8.118;2022-07-09T02:54:25;15.80;99.90
7936;DHT22;4013;49.744;8.118;2022-07-09T02:56:52;15.80;99.90
7936;DHT22;4013;49.744;8.118;2022-07-09T02:59:19;15.70;99.90
7936;DHT22;4013;49.744;8.118;2022-07-09T03:01:46;15.70;99.90
7936;DHT22;4013;49.744;8.118;2022-07-09T03:04:14;15.70;99.90
7936;DHT22;4013;49.744;8.118;2022-07-09T03:06:41;15.70;99.90
7936;DHT22;4013;49.744;8.118;2022-07-09T03:09:09;15.70;99.90
7936;DHT22;4013;49.744;8.118;2022-07-09T03:11:36;15.70;99.90
7936;DHT22;4013;49.744;8.118;2022-07-09T03:14:02;15.60;99.90
7936;DHT22;4013;49.744;8.118;2022-07-09T03:16:29;15.70;99.90
7936;DHT22;4013;49.744;8.118;2022-07-09T03:18:56;15.80;99.90
7936;DHT22;4013;49.744;8.118;2022-07-09T03:21:24;15.80;99.90
7936;DHT22;4013;49.744;8.118;2022-07-09T03:23:51;15.70;99.90
7936;DHT22;4013;49.744;8.118;2022-07-09T03:26:18;15.60;99.90
7936;DHT22;4013;49.744;8.118;2022-07-09T03:28:45;15.70;99.90
7936;DHT22;4013;49.744;8.118;2022-07-09T03:31:12;15.70;99.90
7936;DHT22;4013;49.744;8.118;2022-07-09T03:33:39;15.70;99.90
7936;DHT22;4013;49.744;8.118;2022-07-09T03:36:06;15.70;99.90
7936;DHT22;4013;49.744;8.118;2022-07-09T03:38:36;15.70;99.90
7936;DHT22;4013;49.744;8.118;2022-07-09T03:41:04;15.70;99.90
7936;DHT22;4013;49.744;8.118;2022-07-09T03:43:31;15.80;99.90
7936;DHT22;4013;49.744;8.118;2022-07-09T03:45:58;15.80;99.90
7936;DHT22;4013;49.744;8.118;2022-07-09T03:48:25;15.80;99.90
7936;DHT22;4013;49.744;8.118;2022-07-09T03:50:52;15.90;99.90
7936;DHT22;4013;49.744;8.118;2022-07-09T03:53:19;15.90;99.90
7936;DHT22;4013;49.744;8.118;2022-07-09T03:55:47;16.00;99.90
7936;DHT22;4013;49.744;8.118;2022-07-09T03:58:14;16.00;99.90
7936;DHT22;4013;49.744;8.118;2022-07-09T04:00:41;16.00;99.90
7936;DHT22;4013;49.744;8.118;2022-07-09T04:03:08;16.00;99.90
7936;DHT22;4013;49.744;8.118;2022-07-09T04:05:34;16.00;99.90
7936;DHT22;4013;49.744;8.118;2022-07-09T04:08:01;16.00;99.90
7936;DHT22;4013;49.744;8.118;2022-07-09T04:10:28;16.00;99.90
7936;DHT22;4013;49.744;8.118;2022-07-09T04:12:57;16.00;99.90
7936;DHT22;4013;49.744;8.118;2022-07-09T04:15:24;16.00;99.90
7936;DHT22;4013;49.744;8.118;2022-07-09T04:17:50;16.00;99.90
7936;DHT22;4013;49.744;8.118;2022-07-09T04:20:17;16.10;99.90
7936;DHT22;4013;49.744;8.118;2022-07-09T04:22:44;16.10;99.90
7936;DHT22;4013;49.744;8.118;2022-07-09T04:25:11;16.20;99.90
7936;DHT22;4013;49.744;8.118;2022-07-09T04:27:38;16.30;99.90
7936;DHT22;4013;49.744;8.118;2022-07-09T04:30:07;16.40;99.90
7936;DHT22;4013;49.744;8.118;2022-07-09T04:32:35;16.50;99.90
7936;DHT22;4013;49.744;8.118;2022-07-09T04:35:02;16.50;99.90
7936;DHT22;4013;49.744;8.118;2022-07-09T04:37:37;16.50;99.90
7936;DHT22;4013;49.744;8.118;2022-07-09T04:40:06;16.50;99.90
7936;DHT22;4013;49.744;8.118;2022-07-09T04:42:33;16.50;99.90
7936;DHT22;4013;49.744;8.118;2022-07-09T04:45:00;16.50;99.90
7936;DHT22;4013;49.744;8.118;2022-07-09T04:47:28;16.50;99.90
7936;DHT22;4013;49.744;8.118;2022-07-09T04:49:55;16.50;99.90
7936;DHT22;4013;49.744;8.118;2022-07-09T04:52:22;16.60;99.90
7936;DHT22;4013;49.744;8.118;2022-07-09T04:54:52;16.60;99.90
7936;DHT22;4013;49.744;8.118;2022-07-09T04:57:19;16.60;99.90
7936;DHT22;4013;49.744;8.118;2022-07-09T04:59:46;16.60;99.90
7936;DHT22;4013;49.744;8.118;2022-07-09T05:02:13;16.60;99.90
7936;DHT22;4013;49.744;8.118;2022-07-09T05:04:42;16.50;99.90
7936;DHT22;4013;49.744;8.118;2022-07-09T05:07:09;16.40;99.90
7936;DHT22;4013;49.744;8.118;2022-07-09T05:09:35;16.40;99.90
7936;DHT22;4013;49.744;8.118;2022-07-09T05:12:03;16.40;99.90
7936;DHT22;4013;49.744;8.118;2022-07-09T05:14:30;16.50;99.90
7936;DHT22;4013;49.744;8.118;2022-07-09T05:16:57;16.50;99.90
7936;DHT22;4013;49.744;8.118;2022-07-09T05:19:24;16.60;99.90
7936;DHT22;4013;49.744;8.118;2022-07-09T05:21:52;16.60;99.90
7936;DHT22;4013;49.744;8.118;2022-07-09T05:24:19;16.80;99.90
7936;DHT22;4013;49.744;8.118;2022-07-09T05:26:46;16.90;99.90
7936;DHT22;4013;49.744;8.118;2022-07-09T05:29:13;17.00;99.90
7936;DHT22;4013;49.744;8.118;2022-07-09T05:31:40;17.10;99.90
7936;DHT22;4013;49.744;8.118;2022-07-09T05:34:07;17.20;99.90
7936;DHT22;4013;49.744;8.118;2022-07-09T05:36:34;17.30;99.90
7936;DHT22;4013;49.744;8.118;2022-07-09T05:39:03;17.40;99.90
7936;DHT22;4013;49.744;8.118;2022-07-09T05:41:32;17.50;99.90
7936;DHT22;4013;49.744;8.118;2022-07-09T05:43:59;17.60;99.90
7936;DHT22;4013;49.744;8.118;2022-07-09T05:46:29;17.80;99.90
7936;DHT22;4013;49.744;8.118;2022-07-09T05:48:56;17.90;99.90
7936;DHT22;4013;49.744;8.118;2022-07-09T05:51:23;18.00;99.90
7936;DHT22;4013;49.744;8.118;2022-07-09T05:53:50;18.00;99.90
7936;DHT22;4013;49.744;8.118;2022-07-09T05:56:18;18.10;99.90
7936;DHT22;4013;49.744;8.118;2022-07-09T05:58:45;18.20;99.90
7936;DHT22;4013;49.744;8.118;2022-07-09T06:01:12;18.30;99.90
7936;DHT22;4013;49.744;8.118;2022-07-09T06:03:39;18.40;99.90
7936;DHT22;4013;49.744;8.118;2022-07-09T06:06:06;18.60;99.90
7936;DHT22;4013;49.744;8.118;2022-07-09T06:08:33;18.80;99.90
7936;DHT22;4013;49.744;8.118;2022-07-09T06:11:00;18.90;99.90
7936;DHT22;4013;49.744;8.118;2022-07-09T06:13:28;19.10;99.90
7936;DHT22;4013;49.744;8.118;2022-07-09T06:15:55;19.30;99.90
7936;DHT22;4013;49.744;8.118;2022-07-09T06:18:22;19.40;99.90
7936;DHT22;4013;49.744;8.118;2022-07-09T06:20:49;19.60;99.90
7936;DHT22;4013;49.744;8.118;2022-07-09T06:23:16;19.70;99.90
7936;DHT22;4013;49.744;8.118;2022-07-09T06:25:43;19.90;99.90
7936;DHT22;4013;49.744;8.118;2022-07-09T06:28:10;20.10;99.90
7936;DHT22;4013;49.744;8.118;2022-07-09T06:30:38;20.10;99.90
7936;DHT22;4013;49.744;8.118;2022-07-09T06:33:05;20.10;99.90
7936;DHT22;4013;49.744;8.118;2022-07-09T06:35:32;20.40;99.90
7936;DHT22;4013;49.744;8.118;2022-07-09T06:37:59;20.60;99.90
7936;DHT22;4013;49.744;8.118;2022-07-09T06:40:27;20.70;99.90
7936;DHT22;4013;49.744;8.118;2022-07-09T06:42:55;20.90;99.90
7936;DHT22;4013;49.744;8.118;2022-07-09T06:45:22;21.10;99.90
7936;DHT22;4013;49.744;8.118;2022-07-09T06:47:50;21.30;99.90
7936;DHT22;4013;49.744;8.118;2022-07-09T06:50:18;21.40;99.90
7936;DHT22;4013;49.744;8.118;2022-07-09T06:52:45;21.40;99.90
7936;DHT22;4013;49.744;8.118;2022-07-09T06:55:12;21.50;99.90
7936;DHT22;4013;49.744;8.118;2022-07-09T06:57:39;21.70;99.90
7936;DHT22;4013;49.744;8.118;2022-07-09T07:00:07;21.60;99.90
7936;DHT22;4013;49.744;8.118;2022-07-09T07:02:34;21.70;99.90
7936;DHT22;4013;49.744;8.118;2022-07-09T07:05:03;21.70;99.90
7936;DHT22;4013;49.744;8.118;2022-07-09T07:07:30;21.80;99.90
7936;DHT22;4013;49.744;8.118;2022-07-09T07:09:57;21.80;99.90
7936;DHT22;4013;49.744;8.118;2022-07-09T07:12:24;21.90;99.90
7936;DHT22;4013;49.744;8.118;2022-07-09T07:14:51;21.90;99.90
7936;DHT22;4013;49.744;8.118;2022-07-09T07:17:18;22.00;99.90
7936;DHT22;4013;49.744;8.118;2022-07-09T07:19:45;22.10;99.90
7936;DHT22;4013;49.744;8.118;2022-07-09T07:22:13;22.30;99.90
7936;DHT22;4013;49.744;8.118;2022-07-09T07:24:40;22.30;99.90
7936;DHT22;4013;49.744;8.118;2022-07-09T07:27:07;22.20;99.90
7936;DHT22;4013;49.744;8.118;2022-07-09T07:29:34;22.30;99.90
7936;DHT22;4013;49.744;8.118;2022-07-09T07:32:01;22.40;99.90
7936;DHT22;4013;49.744;8.118;2022-07-09T07:34:27;22.30;99.90
7936;DHT22;4013;49.744;8.118;2022-07-09T07:36:54;22.30;99.90
7936;DHT22;4013;49.744;8.118;2022-07-09T07:39:23;22.30;99.90
7936;DHT22;4013;49.744;8.118;2022-07-09T07:41:52;22.20;99.90
7936;DHT22;4013;49.744;8.118;2022-07-09T07:44:19;22.40;99.90
7936;DHT22;4013;49.744;8.118;2022-07-09T07:46:48;22.40;99.90
7936;DHT22;4013;49.744;8.118;2022-07-09T07:49:15;22.50;99.90
7936;DHT22;4013;49.744;8.118;2022-07-09T07:51:43;22.50;99.90
7936;DHT22;4013;49.744;8.118;2022-07-09T07:54:10;22.60;99.90
7936;DHT22;4013;49.744;8.118;2022-07-09T07:56:38;22.60;99.90
7936;DHT22;4013;49.744;8.118;2022-07-09T07:59:05;22.60;99.90
7936;DHT22;4013;49.744;8.118;2022-07-09T08:01:32;22.60;99.90
7936;DHT22;4013;49.744;8.118;2022-07-09T08:03:59;22.60;99.90
7936;DHT22;4013;49.744;8.118;2022-07-09T08:06:26;22.60;99.90
7936;DHT22;4013;49.744;8.118;2022-07-09T08:08:53;22.70;99.90
7936;DHT22;4013;49.744;8.118;2022-07-09T08:11:20;22.70;99.90
7936;DHT22;4013;49.744;8.118;2022-07-09T08:13:49;22.60;99.90
7936;DHT22;4013;49.744;8.118;2022-07-09T08:16:15;22.70;99.90
7936;DHT22;4013;49.744;8.118;2022-07-09T08:18:42;22.60;99.90
7936;DHT22;4013;49.744;8.118;2022-07-09T08:21:09;22.80;99.90
7936;DHT22;4013;49.744;8.118;2022-07-09T08:23:36;22.60;99.90
7936;DHT22;4013;49.744;8.118;2022-07-09T08:26:19;22.50;99.90
7936;DHT22;4013;49.744;8.118;2022-07-09T08:28:46;22.50;99.90
7936;DHT22;4013;49.744;8.118;2022-07-09T08:31:14;22.60;99.90
7936;DHT22;4013;49.744;8.118;2022-07-09T08:33:41;22.60;99.90
7936;DHT22;4013;49.744;8.118;2022-07-09T08:36:09;22.80;99.90
7936;DHT22;4013;49.744;8.118;2022-07-09T08:38:36;23.00;99.90
7936;DHT22;4013;49.744;8.118;2022-07-09T08:41:04;23.00;99.90
7936;DHT22;4013;49.744;8.118;2022-07-09T08:43:32;23.00;99.90
7936;DHT22;4013;49.744;8.118;2022-07-09T08:46:00;22.80;99.90
7936;DHT22;4013;49.744;8.118;2022-07-09T08:48:28;22.80;99.90
7936;DHT22;4013;49.744;8.118;2022-07-09T08:50:57;22.70;99.90
7936;DHT22;4013;49.744;8.118;2022-07-09T08:53:25;22.70;99.90
7936;DHT22;4013;49.744;8.118;2022-07-09T08:55:54;22.60;99.90
7936;DHT22;4013;49.744;8.118;2022-07-09T08:58:21;22.50;99.90
7936;DHT22;4013;49.744;8.118;2022-07-09T09:00:48;22.60;99.90
7936;DHT22;4013;49.744;8.118;2022-07-09T09:03:16;22.70;99.90
7936;DHT22;4013;49.744;8.118;2022-07-09T09:05:45;22.70;99.90
7936;DHT22;4013;49.744;8.118;2022-07-09T09:08:17;22.50;99.90
7936;DHT22;4013;49.744;8.118;2022-07-09T09:10:46;22.40;99.90
7936;DHT22;4013;49.744;8.118;2022-07-09T09:13:14;22.40;99.90
7936;DHT22;4013;49.744;8.118;2022-07-09T09:15:42;22.50;99.90
7936;DHT22;4013;49.744;8.118;2022-07-09T09:18:09;22.60;99.90
7936;DHT22;4013;49.744;8.118;2022-07-09T09:20:36;22.60;99.90
7936;DHT22;4013;49.744;8.118;2022-07-09T09:23:05;22.60;99.90
7936;DHT22;4013;49.744;8.118;2022-07-09T09:25:37;22.60;99.90
7936;DHT22;4013;49.744;8.118;2022-07-09T09:28:07;22.70;99.90
7936;DHT22;4013;49.744;8.118;2022-07-09T09:30:41;22.80;99.90
7936;DHT22;4013;49.744;8.118;2022-07-09T09:33:08;22.80;99.90
7936;DHT22;4013;49.744;8.118;2022-07-09T09:35:35;22.70;99.90
7936;DHT22;4013;49.744;8.118;2022-07-09T09:38:09;22.60;99.90
7936;DHT22;4013;49.744;8.118;2022-07-09T09:40:36;22.80;99.90
7936;DHT22;4013;49.744;8.118;2022-07-09T09:43:04;22.90;99.90
7936;DHT22;4013;49.744;8.118;2022-07-09T09:45:33;23.10;99.90
7936;DHT22;4013;49.744;8.118;2022-07-09T09:48:00;23.10;99.90
7936;DHT22;4013;49.744;8.118;2022-07-09T09:50:28;23.10;99.90
7936;DHT22;4013;49.744;8.118;2022-07-09T09:52:55;23.10;99.90
7936;DHT22;4013;49.744;8.118;2022-07-09T09:55:24;23.10;99.90
7936;DHT22;4013;49.744;8.118;2022-07-09T09:57:51;23.20;99.90
7936;DHT22;4013;49.744;8.118;2022-07-09T10:00:19;23.20;99.90
7936;DHT22;4013;49.744;8.118;2022-07-09T10:02:48;23.20;99.90
7936;DHT22;4013;49.744;8.118;2022-07-09T10:05:16;23.20;99.90
7936;DHT22;4013;49.744;8.118;2022-07-09T10:07:44;23.10;99.90
7936;DHT22;4013;49.744;8.118;2022-07-09T10:10:17;23.20;99.90
7936;DHT22;4013;49.744;8.118;2022-07-09T10:12:46;23.40;99.90
7936;DHT22;4013;49.744;8.118;2022-07-09T10:15:21;23.50;99.90
7936;DHT22;4013;49.744;8.118;2022-07-09T10:17:48;23.40;99.90
7936;DHT22;4013;49.744;8.118;2022-07-09T10:20:15;23.50;99.90
7936;DHT22;4013;49.744;8.118;2022-07-09T10:22:43;23.50;99.90
7936;DHT22;4013;49.744;8.118;2022-07-09T10:25:12;23.60;99.90
7936;DHT22;4013;49.744;8.118;2022-07-09T10:27:41;23.60;99.90
7936;DHT22;4013;49.744;8.118;2022-07-09T10:30:23;23.70;99.90
7936;DHT22;4013;49.744;8.118;2022-07-09T10:33:02;23.80;99.90
7936;DHT22;4013;49.744;8.118;2022-07-09T10:35:29;23.80;99.90
7936;DHT22;4013;49.744;8.118;2022-07-09T10:37:56;23.90;99.90
7936;DHT22;4013;49.744;8.118;2022-07-09T10:40:24;24.00;99.90
7936;DHT22;4013;49.744;8.118;2022-07-09T10:43:02;24.00;99.90
7936;DHT22;4013;49.744;8.118;2022-07-09T10:45:36;24.00;99.90
7936;DHT22;4013;49.744;8.118;2022-07-09T10:48:04;24.00;99.90
7936;DHT22;4013;49.744;8.118;2022-07-09T10:50:33;24.20;99.90
7936;DHT22;4013;49.744;8.118;2022-07-09T10:53:02;24.30;99.90
7936;DHT22;4013;49.744;8.118;2022-07-09T10:55:30;24.20;99.90
7936;DHT22;4013;49.744;8.118;2022-07-09T10:57:57;24.40;99.90
7936;DHT22;4013;49.744;8.118;2022-07-09T11:00:26;24.50;99.90
7936;DHT22;4013;49.744;8.118;2022-07-09T11:02:57;24.60;99.90
7936;DHT22;4013;49.744;8.118;2022-07-09T11:05:25;24.70;99.90
7936;DHT22;4013;49.744;8.118;2022-07-09T11:08:00;24.80;99.90
7936;DHT22;4013;49.744;8.118;2022-07-09T11:10:27;24.90;99.90
7936;DHT22;4013;49.744;8.118;2022-07-09T11:12:55;24.90;99.90
7936;DHT22;4013;49.744;8.118;2022-07-09T11:15:24;25.00;99.90
7936;DHT22;4013;49.744;8.118;2022-07-09T11:18:02;24.90;99.90
7936;DHT22;4013;49.744;8.118;2022-07-09T11:20:31;24.80;99.90
7936;DHT22;4013;49.744;8.118;2022-07-09T11:22:58;24.80;99.90
7936;DHT22;4013;49.744;8.118;2022-07-09T11:25:27;24.90;99.90
7936;DHT22;4013;49.744;8.118;2022-07-09T11:27:54;24.80;99.90
7936;DHT22;4013;49.744;8.118;2022-07-09T11:30:21;24.80;99.90
7936;DHT22;4013;49.744;8.118;2022-07-09T11:32:48;24.60;99.90
7936;DHT22;4013;49.744;8.118;2022-07-09T11:35:28;24.60;99.90
7936;DHT22;4013;49.744;8.118;2022-07-09T11:37:55;24.40;99.90
7936;DHT22;4013;49.744;8.118;2022-07-09T11:40:23;24.50;99.90
7936;DHT22;4013;49.744;8.118;2022-07-09T11:42:50;24.70;99.90
7936;DHT22;4013;49.744;8.118;2022-07-09T11:45:22;24.80;99.90
7936;DHT22;4013;49.744;8.118;2022-07-09T11:47:49;24.80;99.90
7936;DHT22;4013;49.744;8.118;2022-07-09T11:50:17;24.90;99.90
7936;DHT22;4013;49.744;8.118;2022-07-09T11:52:47;24.70;99.90
7936;DHT22;4013;49.744;8.118;2022-07-09T11:55:16;24.70;99.90
7936;DHT22;4013;49.744;8.118;2022-07-09T11:57:54;24.80;99.90
7936;DHT22;4013;49.744;8.118;2022-07-09T12:00:23;24.90;99.90
7936;DHT22;4013;49.744;8.118;2022-07-09T12:02:51;24.70;99.90
7936;DHT22;4013;49.744;8.118;2022-07-09T12:05:27;24.60;99.90
7936;DHT22;4013;49.744;8.118;2022-07-09T12:07:58;24.70;99.90
7936;DHT22;4013;49.744;8.118;2022-07-09T12:10:27;24.80;99.90
7936;DHT22;4013;49.744;8.118;2022-07-09T12:12:54;25.00;99.90
7936;DHT22;4013;49.744;8.118;2022-07-09T12:15:21;25.20;99.90
7936;DHT22;4013;49.744;8.118;2022-07-09T12:17:51;25.30;99.90
7936;DHT22;4013;49.744;8.118;2022-07-09T12:20:20;25.30;99.90
7936;DHT22;4013;49.744;8.118;2022-07-09T12:22:47;25.10;99.90
7936;DHT22;4013;49.744;8.118;2022-07-09T12:25:15;25.00;99.90
7936;DHT22;4013;49.744;8.118;2022-07-09T12:27:43;24.90;99.90
7936;DHT22;4013;49.744;8.118;2022-07-09T12:30:10;24.90;99.90
7936;DHT22;4013;49.744;8.118;2022-07-09T12:32:37;25.00;99.90
7936;DHT22;4013;49.744;8.118;2022-07-09T12:35:06;25.10;99.90
7936;DHT22;4013;49.744;8.118;2022-07-09T12:37:33;25.30;99.90
7936;DHT22;4013;49.744;8.118;2022-07-09T12:40:00;25.10;99.40
7936;DHT22;4013;49.744;8.118;2022-07-09T12:42:28;24.90;99.80
7936;DHT22;4013;49.744;8.118;2022-07-09T12:44:56;24.90;99.90
7936;DHT22;4013;49.744;8.118;2022-07-09T12:47:23;25.00;99.70
7936;DHT22;4013;49.744;8.118;2022-07-09T12:49:50;25.20;98.00
7936;DHT22;4013;49.744;8.118;2022-07-09T12:52:17;25.20;97.80
7936;DHT22;4013;49.744;8.118;2022-07-09T12:54:44;25.30;97.30
7936;DHT22;4013;49.744;8.118;2022-07-09T12:57:11;25.40;96.70
7936;DHT22;4013;49.744;8.118;2022-07-09T12:59:39;25.30;95.20
7936;DHT22;4013;49.744;8.118;2022-07-09T13:02:06;25.10;96.00
7936;DHT22;4013;49.744;8.118;2022-07-09T13:04:34;25.30;94.60
7936;DHT22;4013;49.744;8.118;2022-07-09T13:07:01;25.80;93.60
7936;DHT22;4013;49.744;8.118;2022-07-09T13:09:28;26.00;93.80
7936;DHT22;4013;49.744;8.118;2022-07-09T13:11:55;25.80;95.10
7936;DHT22;4013;49.744;8.118;2022-07-09T13:14:22;25.90;95.30
7936;DHT22;4013;49.744;8.118;2022-07-09T13:16:51;25.90;93.90
7936;DHT22;4013;49.744;8.118;2022-07-09T13:19:18;25.90;96.20
7936;DHT22;4013;49.744;8.118;2022-07-09T13:21:44;26.00;93.30
7936;DHT22;4013;49.744;8.118;2022-07-09T13:24:11;25.80;92.70
7936;DHT22;4013;49.744;8.118;2022-07-09T13:26:39;25.70;93.40
7936;DHT22;4013;49.744;8.118;2022-07-09T13:29:06;25.60;92.80
7936;DHT22;4013;49.744;8.118;2022-07-09T13:31:33;25.40;94.20
7936;DHT22;4013;49.744;8.118;2022-07-09T13:34:01;25.40;94.20
7936;DHT22;4013;49.744;8.118;2022-07-09T13:36:29;25.40;94.40
7936;DHT22;4013;49.744;8.118;2022-07-09T13:38:56;25.40;92.70
7936;DHT22;4013;49.744;8.118;2022-07-09T13:41:22;25.40;93.70
7936;DHT22;4013;49.744;8.118;2022-07-09T13:43:49;25.50;93.00
7936;DHT22;4013;49.744;8.118;2022-07-09T13:46:16;25.80;93.90
7936;DHT22;4013;49.744;8.118;2022-07-09T13:48:43;26.00;92.30
7936;DHT22;4013;49.744;8.118;2022-07-09T13:51:11;26.10;91.80
7936;DHT22;4013;49.744;8.118;2022-07-09T13:53:38;26.10;90.90
7936;DHT22;4013;49.744;8.118;2022-07-09T13:56:06;26.10;92.30
7936;DHT22;4013;49.744;8.118;2022-07-09T13:58:33;26.00;90.80
7936;DHT22;4013;49.744;8.118;2022-07-09T14:01:01;25.80;91.20
7936;DHT22;4013;49.744;8.118;2022-07-09T14:03:28;25.70;90.70
7936;DHT22;4013;49.744;8.118;2022-07-09T14:05:54;25.40;91.80
7936;DHT22;4013;49.744;8.118;2022-07-09T14:08:23;25.30;92.10
7936;DHT22;4013;49.744;8.118;2022-07-09T14:10:53;25.30;91.80
7936;DHT22;4013;49.744;8.118;2022-07-09T14:13:24;25.20;92.10
7936;DHT22;4013;49.744;8.118;2022-07-09T14:15:53;25.10;92.00
7936;DHT22;4013;49.744;8.118;2022-07-09T14:18:20;25.10;92.00
7936;DHT22;4013;49.744;8.118;2022-07-09T14:20:47;25.10;92.30
7936;DHT22;4013;49.744;8.118;2022-07-09T14:23:14;25.00;92.40
7936;DHT22;4013;49.744;8.118;2022-07-09T14:25:42;25.10;92.90
7936;DHT22;4013;49.744;8.118;2022-07-09T14:28:09;25.10;94.10
7936;DHT22;4013;49.744;8.118;2022-07-09T14:30:36;25.10;93.70
7936;DHT22;4013;49.744;8.118;2022-07-09T14:33:03;25.10;93.60
7936;DHT22;4013;49.744;8.118;2022-07-09T14:35:30;25.10;93.70
7936;DHT22;4013;49.744;8.118;2022-07-09T14:38:00;25.10;93.50
7936;DHT22;4013;49.744;8.118;2022-07-09T14:40:27;25.20;93.10
7936;DHT22;4013;49.744;8.118;2022-07-09T14:42:56;25.20;93.30
7936;DHT22;4013;49.744;8.118;2022-07-09T14:45:23;25.20;94.70
7936;DHT22;4013;49.744;8.118;2022-07-09T14:47:52;25.20;94.00
7936;DHT22;4013;49.744;8.118;2022-07-09T14:50:19;25.20;94.30
7936;DHT22;4013;49.744;8.118;2022-07-09T14:52:46;25.20;94.30
7936;DHT22;4013;49.744;8.118;2022-07-09T14:55:13;25.20;93.60
7936;DHT22;4013;49.744;8.118;2022-07-09T14:57:40;25.20;94.70
7936;DHT22;4013;49.744;8.118;2022-07-09T15:00:10;25.20;93.40
7936;DHT22;4013;49.744;8.118;2022-07-09T15:02:37;25.20;93.70
7936;DHT22;4013;49.744;8.118;2022-07-09T15:05:04;25.30;94.20
7936;DHT22;4013;49.744;8.118;2022-07-09T15:07:31;25.30;93.70
7936;DHT22;4013;49.744;8.118;2022-07-09T15:09:58;25.40;93.60
7936;DHT22;4013;49.744;8.118;2022-07-09T15:12:25;25.70;93.90
7936;DHT22;4013;49.744;8.118;2022-07-09T15:14:52;25.70;93.70
7936;DHT22;4013;49.744;8.118;2022-07-09T15:17:20;25.70;93.70
7936;DHT22;4013;49.744;8.118;2022-07-09T15:19:47;25.50;93.70
7936;DHT22;4013;49.744;8.118;2022-07-09T15:22:14;25.30;93.80
7936;DHT22;4013;49.744;8.118;2022-07-09T15:24:42;25.30;94.30
7936;DHT22;4013;49.744;8.118;2022-07-09T15:27:09;25.40;93.00
7936;DHT22;4013;49.744;8.118;2022-07-09T15:29:36;25.40;94.60
7936;DHT22;4013;49.744;8.118;2022-07-09T15:32:03;25.40;93.40
7936;DHT22;4013;49.744;8.118;2022-07-09T15:34:31;25.50;94.10
7936;DHT22;4013;49.744;8.118;2022-07-09T15:36:58;25.60;92.90
7936;DHT22;4013;49.744;8.118;2022-07-09T15:39:26;25.40;93.50
7936;DHT22;4013;49.744;8.118;2022-07-09T15:41:53;25.40;93.50
7936;DHT22;4013;49.744;8.118;2022-07-09T15:44:20;25.60;92.40
7936;DHT22;4013;49.744;8.118;2022-07-09T15:46:47;25.60;92.10
7936;DHT22;4013;49.744;8.118;2022-07-09T15:49:14;25.60;92.70
7936;DHT22;4013;49.744;8.118;2022-07-09T15:51:46;25.60;92.40
7936;DHT22;4013;49.744;8.118;2022-07-09T15:54:13;25.50;93.60
7936;DHT22;4013;49.744;8.118;2022-07-09T15:56:40;25.50;93.00
7936;DHT22;4013;49.744;8.118;2022-07-09T15:59:07;25.60;94.00
7936;DHT22;4013;49.744;8.118;2022-07-09T16:01:36;25.70;93.40
7936;DHT22;4013;49.744;8.118;2022-07-09T16:04:03;25.70;92.60
7936;DHT22;4013;49.744;8.118;2022-07-09T16:06:30;25.70;93.00